Agapi S — D5AR6 — position and weather

sailwx.info

Track history (hours):
 
Tides and Currents Weather Stations Pressure Air Temp Water Temp Dewpoint Dewpoint Depression Visibility Wind Speed Wind Dir Waves Ship Positions

Agapi S

Last reported at 2017-Sep-16 21:25 UTC. Time now 2017-Sep-22 22:38 UTC.
Position N 35°46' E 030°17'.

Length 207 m; draft 11.2 m.

Type: Cargo ship. MMSI: 636015430.

Date/timePositionNaut miles runAvg speedWind from/ knotsBaromVisibWave heightAir tempDewpointWater temp
2017-Sep-16 21:25N 35°46' E 030°17'912.3
2017-Sep-16 20:40N 35°46' E 030°05'28212.0
2017-Sep-15 21:13N 36°13' E 024°18'312.4
2017-Sep-15 21:00N 36°13' E 024°15'612.2
2017-Sep-15 20:30N 36°14' E 024°08'611.9
2017-Sep-15 20:00N 36°15' E 024°00'2512.1
2017-Sep-15 17:59N 36°18' E 023°30'911.7
2017-Sep-15 17:14N 36°18' E 023°19'1 2.7
2017-Sep-15 16:54N 36°19' E 023°19'20710.9
2017-Sep-14 21:58N 36°22' E 019°01'16912.5
2017-Sep-14 08:28N 36°24' E 015°32'612.5
2017-Sep-14 08:00N 36°24' E 015°25'612.6
2017-Sep-14 07:30N 36°24' E 015°17'713.0
2017-Sep-14 07:00N 36°24' E 015°09'613.0
2017-Sep-14 06:30N 36°25' E 015°01'713.2
2017-Sep-14 06:00N 36°25' E 014°53'713.3
2017-Sep-14 05:30N 36°25' E 014°44'713.4
2017-Sep-14 05:00N 36°25' E 014°36'713.3
2017-Sep-14 04:30N 36°27' E 014°28'713.3
2017-Sep-14 04:00N 36°29' E 014°20'813.1
2017-Sep-14 03:22N 36°31' E 014°10'513.3
2017-Sep-14 03:00N 36°32' E 014°04'713.3
2017-Sep-14 02:30N 36°34' E 013°56'713.3
2017-Sep-14 02:00N 36°36' E 013°48'613.1
2017-Sep-14 01:30N 36°38' E 013°41'713.0
2017-Sep-14 01:00N 36°39' E 013°33'612.9
2017-Sep-14 00:30N 36°41' E 013°25'612.8
2017-Sep-14 00:00N 36°44' E 013°18'613.0
2017-Sep-13 23:30N 36°45' E 013°10'612.7
2017-Sep-13 23:00N 36°47' E 013°02'612.7
2017-Sep-13 22:30N 36°49' E 012°55'612.5
2017-Sep-13 22:00N 36°51' E 012°47'612.4
2017-Sep-13 21:30N 36°53' E 012°40'612.4
2017-Sep-13 21:00N 36°54' E 012°32'2012.4
2017-Sep-13 19:22N 36°60' E 012°08'612.3
2017-Sep-13 18:53N 37°02' E 012°01'512.0
2017-Sep-13 18:30N 37°03' E 011°55'612.1
2017-Sep-13 17:59N 37°06' E 011°49'34112.2
2017-Sep-12 14:04N 37°09' E 004°41'112.7
2017-Sep-12 14:00N 37°09' E 004°40'8213.0
2017-Sep-12 07:41N 37°01' E 002°57'313.3
2017-Sep-12 07:27N 37°00' E 002°53'613.4
2017-Sep-12 07:00N 36°59' E 002°46'713.2
2017-Sep-12 06:27N 36°58' E 002°37'613.2
2017-Sep-12 06:00N 36°57' E 002°30'713.1
2017-Sep-12 05:30N 36°56' E 002°22'712.7
2017-Sep-12 04:59N 36°55' E 002°13'612.6
2017-Sep-12 04:30N 36°54' E 002°06'612.5
2017-Sep-12 04:00N 36°53' E 001°58'612.4
2017-Sep-12 03:30N 36°52' E 001°51'612.3
2017-Sep-12 03:00N 36°52' E 001°43'612.3
2017-Sep-12 02:30N 36°50' E 001°35'812.7
2017-Sep-12 01:50N 36°49' E 001°25'413.2
2017-Sep-12 01:30N 36°48' E 001°20'713.3
2017-Sep-12 00:58N 36°47' E 001°11'612.8
2017-Sep-12 00:30N 36°47' E 001°03'612.8
2017-Sep-12 00:00N 36°46' E 000°55'612.8
2017-Sep-11 23:30N 36°45' E 000°47'612.7
2017-Sep-11 23:00N 36°44' E 000°40'612.6
2017-Sep-11 22:30N 36°42' E 000°32'1212.3
2017-Sep-11 21:32N 36°41' E 000°17'012.4
2017-Sep-11 21:30N 36°41' E 000°17'612.5
2017-Sep-11 21:00N 36°40' E 000°09'612.3
2017-Sep-11 20:30N 36°38' E 000°02'612.3
2017-Sep-11 20:00N 36°37' W 000°06'712.5
2017-Sep-11 19:27N 36°36' W 000°14'812.3
2017-Sep-11 18:48N 36°35' W 000°24'412.2
2017-Sep-11 18:27N 36°34' W 000°30'712.0
2017-Sep-11 17:51N 36°33' W 000°38'412.0
2017-Sep-11 17:30N 36°33' W 000°44'712.0
2017-Sep-11 16:54N 36°32' W 000°53'512.2
2017-Sep-11 16:30N 36°31' W 000°59'612.4
2017-Sep-11 16:00N 36°30' W 001°06'613.1
2017-Sep-11 15:30N 36°29' W 001°14'713.5
2017-Sep-11 15:00N 36°28' W 001°23'813.7
2017-Sep-11 14:26N 36°26' W 001°32'713.7
2017-Sep-11 13:57N 36°25' W 001°40'613.6
2017-Sep-11 13:30N 36°25' W 001°48'713.6
2017-Sep-11 13:00N 36°24' W 001°56'14913.1
2017-Sep-11 01:37N 36°02' W 004°59'315.2
2017-Sep-11 01:27N 36°02' W 005°02'715.4
2017-Sep-11 01:00N 36°01' W 005°11'815.3
2017-Sep-11 00:30N 35°59' W 005°20'815.4
2017-Sep-11 00:00N 35°57' W 005°29'1313.4
2017-Sep-10 23:01N 35°54' W 005°45'012.9
2017-Sep-10 23:00N 35°54' W 005°45'  
2017-Sep-08 01:50N 35°57' W 022°31'7111.2
2017-Sep-07 19:26N 35°58' W 023°59'511.4
2017-Sep-07 19:00N 35°58' W 024°06'611.3
2017-Sep-07 18:30N 35°58' W 024°13'611.4
2017-Sep-07 18:00N 35°58' W 024°20'611.5
2017-Sep-07 17:30N 35°58' W 024°27'611.5
2017-Sep-07 17:00N 35°58' W 024°34'611.5
2017-Sep-07 16:30N 35°58' W 024°41'611.6
2017-Sep-07 16:00N 35°58' W 024°48'611.5
2017-Sep-07 15:30N 35°58' W 024°55'611.3
2017-Sep-07 15:00N 35°58' W 025°02'611.4
2017-Sep-07 14:30N 35°58' W 025°09'611.5
2017-Sep-07 14:00N 35°58' W 025°16'611.7
2017-Sep-07 13:30N 35°58' W 025°23'611.9
2017-Sep-07 13:00N 35°59' W 025°31'611.6
2017-Sep-07 12:30N 35°59' W 025°38'611.7
2017-Sep-07 12:00N 35°59' W 025°45'611.8
2017-Sep-07 11:29N 35°60' W 025°53'611.6
2017-Sep-07 10:59N 35°60' W 026°00'611.5
2017-Sep-07 10:30N 35°60' W 026°07'4911.4
2017-Sep-07 06:15N 36°01' W 027°07'1311.2
2017-Sep-07 05:03N 36°01' W 027°24'  
Track history (hours):
 
Tides and Currents Weather Stations Pressure Air Temp Water Temp Dewpoint Dewpoint Depression Visibility Wind Speed Wind Dir Waves Ship Positions

Agapi S

Last reported at 2017-Sep-16 21:25 UTC. Time now 2017-Sep-22 22:38 UTC.
Position N 35°46' E 030°17'.

Length 207 m; draft 11.2 m.

Type: Cargo ship. MMSI: 636015430.

Date/timePositionNaut miles runAvg speedWind from/ knotsBaromVisibWave heightAir tempDewpointWater temp
2017-Sep-16 21:25N 35°46' E 030°17'912.3
2017-Sep-16 20:40N 35°46' E 030°05'28212.0
2017-Sep-15 21:13N 36°13' E 024°18'312.4
2017-Sep-15 21:00N 36°13' E 024°15'612.2
2017-Sep-15 20:30N 36°14' E 024°08'611.9
2017-Sep-15 20:00N 36°15' E 024°00'2512.1
2017-Sep-15 17:59N 36°18' E 023°30'911.7
2017-Sep-15 17:14N 36°18' E 023°19'1 2.7
2017-Sep-15 16:54N 36°19' E 023°19'20710.9
2017-Sep-14 21:58N 36°22' E 019°01'16912.5
2017-Sep-14 08:28N 36°24' E 015°32'612.5
2017-Sep-14 08:00N 36°24' E 015°25'612.6
2017-Sep-14 07:30N 36°24' E 015°17'713.0
2017-Sep-14 07:00N 36°24' E 015°09'613.0
2017-Sep-14 06:30N 36°25' E 015°01'713.2
2017-Sep-14 06:00N 36°25' E 014°53'713.3
2017-Sep-14 05:30N 36°25' E 014°44'713.4
2017-Sep-14 05:00N 36°25' E 014°36'713.3
2017-Sep-14 04:30N 36°27' E 014°28'713.3
2017-Sep-14 04:00N 36°29' E 014°20'813.1
2017-Sep-14 03:22N 36°31' E 014°10'513.3
2017-Sep-14 03:00N 36°32' E 014°04'713.3
2017-Sep-14 02:30N 36°34' E 013°56'713.3
2017-Sep-14 02:00N 36°36' E 013°48'613.1
2017-Sep-14 01:30N 36°38' E 013°41'713.0
2017-Sep-14 01:00N 36°39' E 013°33'612.9
2017-Sep-14 00:30N 36°41' E 013°25'612.8
2017-Sep-14 00:00N 36°44' E 013°18'613.0
2017-Sep-13 23:30N 36°45' E 013°10'612.7
2017-Sep-13 23:00N 36°47' E 013°02'612.7
2017-Sep-13 22:30N 36°49' E 012°55'612.5
2017-Sep-13 22:00N 36°51' E 012°47'612.4
2017-Sep-13 21:30N 36°53' E 012°40'612.4
2017-Sep-13 21:00N 36°54' E 012°32'2012.4
2017-Sep-13 19:22N 36°60' E 012°08'612.3
2017-Sep-13 18:53N 37°02' E 012°01'512.0
2017-Sep-13 18:30N 37°03' E 011°55'612.1
2017-Sep-13 17:59N 37°06' E 011°49'34112.2
2017-Sep-12 14:04N 37°09' E 004°41'112.7
2017-Sep-12 14:00N 37°09' E 004°40'8213.0
2017-Sep-12 07:41N 37°01' E 002°57'313.3
2017-Sep-12 07:27N 37°00' E 002°53'613.4
2017-Sep-12 07:00N 36°59' E 002°46'713.2
2017-Sep-12 06:27N 36°58' E 002°37'613.2
2017-Sep-12 06:00N 36°57' E 002°30'713.1
2017-Sep-12 05:30N 36°56' E 002°22'712.7
2017-Sep-12 04:59N 36°55' E 002°13'612.6
2017-Sep-12 04:30N 36°54' E 002°06'612.5
2017-Sep-12 04:00N 36°53' E 001°58'612.4
2017-Sep-12 03:30N 36°52' E 001°51'612.3
2017-Sep-12 03:00N 36°52' E 001°43'612.3
2017-Sep-12 02:30N 36°50' E 001°35'812.7
2017-Sep-12 01:50N 36°49' E 001°25'413.2
2017-Sep-12 01:30N 36°48' E 001°20'713.3
2017-Sep-12 00:58N 36°47' E 001°11'612.8
2017-Sep-12 00:30N 36°47' E 001°03'612.8
2017-Sep-12 00:00N 36°46' E 000°55'612.8
2017-Sep-11 23:30N 36°45' E 000°47'612.7
2017-Sep-11 23:00N 36°44' E 000°40'612.6
2017-Sep-11 22:30N 36°42' E 000°32'1212.3
2017-Sep-11 21:32N 36°41' E 000°17'012.4
2017-Sep-11 21:30N 36°41' E 000°17'612.5
2017-Sep-11 21:00N 36°40' E 000°09'612.3
2017-Sep-11 20:30N 36°38' E 000°02'612.3
2017-Sep-11 20:00N 36°37' W 000°06'712.5
2017-Sep-11 19:27N 36°36' W 000°14'812.3
2017-Sep-11 18:48N 36°35' W 000°24'412.2
2017-Sep-11 18:27N 36°34' W 000°30'712.0
2017-Sep-11 17:51N 36°33' W 000°38'412.0
2017-Sep-11 17:30N 36°33' W 000°44'712.0
2017-Sep-11 16:54N 36°32' W 000°53'512.2
2017-Sep-11 16:30N 36°31' W 000°59'612.4
2017-Sep-11 16:00N 36°30' W 001°06'613.1
2017-Sep-11 15:30N 36°29' W 001°14'713.5
2017-Sep-11 15:00N 36°28' W 001°23'813.7
2017-Sep-11 14:26N 36°26' W 001°32'713.7
2017-Sep-11 13:57N 36°25' W 001°40'613.6
2017-Sep-11 13:30N 36°25' W 001°48'713.6
2017-Sep-11 13:00N 36°24' W 001°56'14913.1
2017-Sep-11 01:37N 36°02' W 004°59'315.2
2017-Sep-11 01:27N 36°02' W 005°02'715.4
2017-Sep-11 01:00N 36°01' W 005°11'815.3
2017-Sep-11 00:30N 35°59' W 005°20'815.4
2017-Sep-11 00:00N 35°57' W 005°29'1313.4
2017-Sep-10 23:01N 35°54' W 005°45'012.9
2017-Sep-10 23:00N 35°54' W 005°45'  
2017-Sep-08 01:50N 35°57' W 022°31'7111.2
2017-Sep-07 19:26N 35°58' W 023°59'511.4
2017-Sep-07 19:00N 35°58' W 024°06'611.3
2017-Sep-07 18:30N 35°58' W 024°13'611.4
2017-Sep-07 18:00N 35°58' W 024°20'611.5
2017-Sep-07 17:30N 35°58' W 024°27'611.5
2017-Sep-07 17:00N 35°58' W 024°34'611.5
2017-Sep-07 16:30N 35°58' W 024°41'611.6
2017-Sep-07 16:00N 35°58' W 024°48'611.5
2017-Sep-07 15:30N 35°58' W 024°55'611.3
2017-Sep-07 15:00N 35°58' W 025°02'611.4
2017-Sep-07 14:30N 35°58' W 025°09'611.5
2017-Sep-07 14:00N 35°58' W 025°16'611.7
2017-Sep-07 13:30N 35°58' W 025°23'611.9
2017-Sep-07 13:00N 35°59' W 025°31'611.6
2017-Sep-07 12:30N 35°59' W 025°38'611.7
2017-Sep-07 12:00N 35°59' W 025°45'611.8
2017-Sep-07 11:29N 35°60' W 025°53'611.6
2017-Sep-07 10:59N 35°60' W 026°00'611.5
2017-Sep-07 10:30N 35°60' W 026°07'4911.4
2017-Sep-07 06:15N 36°01' W 027°07'1311.2
2017-Sep-07 05:03N 36°01' W 027°24'  

Dump ship's entire track history